createdAt,value
2022-07-27T00:00:25.455Z,25.11
2022-07-27T00:01:09.571Z,25.23
2022-07-27T00:01:50.818Z,25.21
2022-07-27T00:02:24.777Z,25.06
2022-07-27T00:02:57.876Z,24.88
2022-07-27T00:03:30.971Z,24.66
2022-07-27T00:04:04.211Z,24.45
2022-07-27T00:04:37.439Z,24.22
2022-07-27T00:05:11.674Z,24.01
2022-07-27T00:05:45.121Z,23.82
2022-07-27T00:06:18.341Z,23.63
2022-07-27T00:06:51.786Z,23.54
2022-07-27T00:07:24.888Z,23.56
2022-07-27T00:07:58.052Z,23.69
2022-07-27T00:08:31.244Z,23.87
2022-07-27T00:09:04.696Z,24.06
2022-07-27T00:09:37.818Z,24.24
2022-07-27T00:10:10.999Z,24.43
2022-07-27T00:10:44.086Z,24.59
2022-07-27T00:11:17.279Z,24.73
2022-07-27T00:11:50.749Z,24.86
2022-07-27T00:12:23.800Z,24.99
2022-07-27T00:12:57.297Z,25.08
2022-07-27T00:13:30.531Z,25.12
2022-07-27T00:14:03.836Z,25.04
2022-07-27T00:14:37.731Z,24.88
2022-07-27T00:15:11.712Z,24.69
2022-07-27T00:15:44.933Z,24.47
2022-07-27T00:16:18.165Z,24.25
2022-07-27T00:16:51.549Z,24.04
2022-07-27T00:17:25.974Z,23.84
2022-07-27T00:18:01.335Z,23.65
2022-07-27T00:18:34.665Z,23.47
2022-07-27T00:19:09.405Z,23.42
2022-07-27T00:19:42.836Z,23.51
2022-07-27T00:20:16.103Z,23.68
2022-07-27T00:20:49.242Z,23.89
2022-07-27T00:21:22.382Z,24.10
2022-07-27T00:21:55.584Z,24.30
2022-07-27T00:22:28.824Z,24.49
2022-07-27T00:23:02.526Z,24.67
2022-07-27T00:23:35.750Z,24.82
2022-07-27T00:24:09.073Z,24.96
2022-07-27T00:24:42.419Z,25.04
2022-07-27T00:25:16.448Z,25.01
2022-07-27T00:25:50.096Z,24.88
2022-07-27T00:26:23.186Z,24.71
2022-07-27T00:26:56.369Z,24.50
2022-07-27T00:27:29.495Z,24.28
2022-07-27T00:28:03.208Z,24.07
2022-07-27T00:28:36.325Z,23.86
2022-07-27T00:29:09.758Z,23.65
2022-07-27T00:29:43.465Z,23.47
2022-07-27T00:30:17.046Z,23.36
2022-07-27T00:30:50.378Z,23.37
2022-07-27T00:31:23.608Z,23.49
2022-07-27T00:31:56.913Z,23.66
2022-07-27T00:32:32.733Z,23.87
2022-07-27T00:33:06.334Z,24.05
2022-07-27T00:33:39.519Z,24.23
2022-07-27T00:34:12.585Z,24.39
2022-07-27T00:34:45.715Z,24.54
2022-07-27T00:35:19.451Z,24.67
2022-07-27T00:35:52.549Z,24.78
2022-07-27T00:36:25.750Z,24.82
2022-07-27T00:36:59.311Z,24.78
2022-07-27T00:37:32.351Z,24.64
2022-07-27T00:38:05.476Z,24.46
2022-07-27T00:38:39.028Z,24.26
2022-07-27T00:39:12.531Z,24.03
2022-07-27T00:39:46.171Z,23.81
2022-07-27T00:40:19.332Z,23.60
2022-07-27T00:40:52.372Z,23.41
2022-07-27T00:41:25.577Z,23.24
2022-07-27T00:41:59.173Z,23.13
2022-07-27T00:42:32.476Z,23.14
2022-07-27T00:43:05.607Z,23.23
2022-07-27T00:43:59.835Z,23.39
2022-07-27T00:44:33.319Z,23.64
2022-07-27T00:45:07.035Z,23.83
2022-07-27T00:45:40.146Z,23.99
2022-07-27T00:46:13.479Z,24.13
2022-07-27T00:46:46.655Z,24.26
2022-07-27T00:47:19.878Z,24.37
2022-07-27T00:47:55.074Z,24.47
2022-07-27T00:48:29.378Z,24.57
2022-07-27T00:49:02.896Z,24.64
2022-07-27T00:49:36.130Z,24.65
2022-07-27T00:50:09.961Z,24.56
2022-07-27T00:50:44.048Z,24.40
2022-07-27T00:51:20.826Z,24.20
2022-07-27T00:51:55.465Z,23.96
2022-07-27T00:52:30.297Z,23.73
2022-07-27T00:53:05.258Z,23.51
2022-07-27T00:53:38.898Z,23.31
2022-07-27T00:54:12.475Z,23.13
2022-07-27T00:54:45.981Z,23.01
2022-07-27T00:55:19.856Z,22.99
2022-07-27T00:55:53.712Z,23.07
2022-07-27T00:56:26.714Z,23.21
2022-07-27T00:56:59.837Z,23.36
2022-07-27T00:57:33.615Z,23.51
2022-07-27T00:58:27.814Z,23.69
2022-07-27T00:59:01.041Z,23.77
2022-07-27T00:59:34.151Z,23.86
2022-07-27T01:00:08.632Z,23.93
2022-07-27T01:00:41.806Z,24.00
2022-07-27T01:01:15.838Z,24.06
2022-07-27T01:01:49.284Z,24.12
2022-07-27T01:02:23.617Z,24.19
2022-07-27T01:02:57.378Z,24.26
2022-07-27T01:03:31.312Z,24.33
2022-07-27T01:04:05.339Z,24.41
2022-07-27T01:04:38.560Z,24.41
2022-07-27T01:05:12.857Z,24.32
2022-07-27T01:05:47.578Z,24.16
2022-07-27T01:06:27.053Z,23.96
2022-07-27T01:07:02.907Z,23.70
2022-07-27T01:07:36.056Z,23.47
2022-07-27T01:08:12.416Z,23.26
2022-07-27T01:08:45.885Z,23.04
2022-07-27T01:09:37.599Z,22.86
2022-07-27T01:10:10.752Z,22.72
2022-07-27T01:10:44.890Z,22.76
2022-07-27T01:11:18.087Z,22.88
2022-07-27T01:11:51.150Z,23.02
2022-07-27T01:12:29.772Z,23.18
2022-07-27T01:13:03.046Z,23.37
2022-07-27T01:13:37.247Z,23.54
2022-07-27T01:14:13.928Z,23.70
2022-07-27T01:14:48.759Z,23.87
2022-07-27T01:15:22.089Z,24.02
2022-07-27T01:15:56.202Z,24.17
2022-07-27T01:16:29.477Z,24.30
2022-07-27T01:17:02.663Z,24.41
2022-07-27T01:17:35.952Z,24.43
2022-07-27T01:18:13.684Z,24.35
2022-07-27T01:18:46.782Z,24.14
2022-07-27T01:19:20.001Z,23.93
2022-07-27T01:19:53.761Z,23.69
2022-07-27T01:20:26.860Z,23.45
2022-07-27T01:21:02.043Z,23.22
2022-07-27T01:21:35.919Z,22.98
2022-07-27T01:22:09.229Z,22.77
2022-07-27T01:22:42.302Z,22.59
2022-07-27T01:23:15.750Z,22.50
2022-07-27T01:23:48.922Z,22.49
2022-07-27T01:24:22.068Z,22.57
2022-07-27T01:24:55.245Z,22.69
2022-07-27T01:25:28.305Z,22.82
2022-07-27T01:26:02.855Z,22.98
2022-07-27T01:26:38.023Z,23.15
2022-07-27T01:27:11.247Z,23.31
2022-07-27T01:27:44.263Z,23.46
2022-07-27T01:28:17.442Z,23.60
2022-07-27T01:28:50.558Z,23.73
2022-07-27T01:29:23.665Z,23.84
2022-07-27T01:29:56.815Z,23.94
2022-07-27T01:30:30.803Z,24.05
2022-07-27T01:31:03.907Z,24.14
2022-07-27T01:31:37.225Z,24.15
2022-07-27T01:32:10.545Z,24.07
2022-07-27T01:32:43.807Z,23.91
2022-07-27T01:33:17.028Z,23.71
2022-07-27T01:33:50.611Z,23.48
2022-07-27T01:34:23.731Z,23.26
2022-07-27T01:34:56.933Z,23.04
2022-07-27T01:35:30.285Z,22.82
2022-07-27T01:36:03.661Z,22.62
2022-07-27T01:36:36.914Z,22.49
2022-07-27T01:37:10.374Z,22.48
2022-07-27T01:37:48.254Z,22.56
2022-07-27T01:38:21.816Z,22.72
2022-07-27T01:38:54.839Z,22.89
2022-07-27T01:39:28.565Z,23.07
2022-07-27T01:40:02.808Z,23.25
2022-07-27T01:40:37.260Z,23.44
2022-07-27T01:41:10.235Z,23.62
2022-07-27T01:41:43.930Z,23.78
2022-07-27T01:42:17.173Z,23.92
2022-07-27T01:42:50.904Z,24.02
2022-07-27T01:43:24.222Z,24.13
2022-07-27T01:43:57.379Z,24.21
2022-07-27T01:44:30.583Z,24.23
2022-07-27T01:45:03.927Z,24.16
2022-07-27T01:45:37.071Z,24.01
2022-07-27T01:46:10.165Z,23.81
2022-07-27T01:46:43.370Z,23.59
2022-07-27T01:47:16.501Z,23.36
2022-07-27T01:47:49.688Z,23.15
2022-07-27T01:48:22.979Z,22.93
2022-07-27T01:48:56.127Z,22.74
2022-07-27T01:49:29.262Z,22.64
2022-07-27T01:50:02.476Z,22.66
2022-07-27T01:50:35.462Z,22.79
2022-07-27T01:51:08.498Z,22.94
2022-07-27T01:51:41.615Z,23.11
2022-07-27T01:52:14.751Z,23.27
2022-07-27T01:52:48.050Z,23.42
2022-07-27T01:53:22.364Z,23.55
2022-07-27T01:53:55.632Z,23.68
2022-07-27T01:54:28.659Z,23.78
2022-07-27T01:55:01.666Z,23.88
2022-07-27T01:55:38.386Z,23.96
2022-07-27T01:56:13.516Z,24.04
2022-07-27T01:56:46.643Z,24.11
2022-07-27T01:57:21.431Z,24.19
2022-07-27T01:57:54.634Z,24.26
2022-07-27T01:58:27.657Z,24.34
2022-07-27T01:59:00.740Z,24.36
2022-07-27T01:59:33.832Z,24.29
2022-07-27T02:00:11.342Z,24.14
2022-07-27T02:00:44.829Z,23.93
2022-07-27T02:01:17.939Z,23.72
2022-07-27T02:01:51.150Z,23.50
2022-07-27T02:02:24.281Z,23.28
2022-07-27T02:02:57.414Z,23.07
2022-07-27T02:03:30.624Z,22.89
2022-07-27T02:04:03.812Z,22.78
2022-07-27T02:04:36.909Z,22.78
2022-07-27T02:05:12.312Z,22.87
2022-07-27T02:05:45.658Z,23.01
2022-07-27T02:06:18.966Z,23.13
2022-07-27T02:06:52.091Z,23.27
2022-07-27T02:07:25.025Z,23.37
2022-07-27T02:07:58.219Z,23.50
2022-07-27T02:08:31.780Z,23.61
2022-07-27T02:09:04.953Z,23.71
2022-07-27T02:09:38.262Z,23.80
2022-07-27T02:10:11.356Z,23.87
2022-07-27T02:11:03.024Z,23.94
2022-07-27T02:11:54.657Z,24.02
2022-07-27T02:12:36.879Z,24.10
2022-07-27T02:13:21.973Z,24.14
2022-07-27T02:13:56.391Z,24.20
2022-07-27T02:14:29.523Z,24.25
2022-07-27T02:15:25.167Z,24.32
2022-07-27T02:15:58.820Z,24.39
2022-07-27T02:16:32.492Z,24.45
2022-07-27T02:17:05.733Z,24.48
2022-07-27T02:17:40.594Z,24.42
2022-07-27T02:18:33.526Z,24.27
2022-07-27T02:19:08.890Z,23.97
2022-07-27T02:19:44.274Z,23.74
2022-07-27T02:20:19.996Z,23.53
2022-07-27T02:20:53.157Z,23.31
2022-07-27T02:21:26.495Z,23.12
2022-07-27T02:21:59.639Z,22.95
2022-07-27T02:22:33.935Z,22.87
2022-07-27T02:23:06.986Z,22.88
2022-07-27T02:23:40.978Z,23.00
2022-07-27T02:24:14.017Z,23.15
2022-07-27T02:24:47.215Z,23.33
2022-07-27T02:25:20.826Z,23.51
2022-07-27T02:25:54.314Z,23.69
2022-07-27T02:26:27.900Z,23.85
2022-07-27T02:27:01.062Z,24.00
2022-07-27T02:27:34.398Z,24.12
2022-07-27T02:28:07.820Z,24.24
2022-07-27T02:28:40.942Z,24.34
2022-07-27T02:29:14.513Z,24.43
2022-07-27T02:29:47.916Z,24.52
2022-07-27T02:30:20.962Z,24.60
2022-07-27T02:30:54.115Z,24.60
2022-07-27T02:31:27.178Z,24.52
2022-07-27T02:32:06.691Z,24.33
2022-07-27T02:32:44.272Z,24.12
2022-07-27T02:33:17.988Z,23.86
2022-07-27T02:33:51.233Z,23.64
2022-07-27T02:34:24.223Z,23.42
2022-07-27T02:34:57.380Z,23.22
2022-07-27T02:35:30.603Z,23.04
2022-07-27T02:36:04.274Z,22.95
2022-07-27T02:36:37.376Z,22.98
2022-07-27T02:37:10.692Z,23.10
2022-07-27T02:37:43.825Z,23.29
2022-07-27T02:38:17.068Z,23.48
2022-07-27T02:38:50.135Z,23.69
2022-07-27T02:39:23.250Z,23.88
2022-07-27T02:39:56.570Z,24.06
2022-07-27T02:40:29.629Z,24.22
2022-07-27T02:41:02.753Z,24.36
2022-07-27T02:41:37.253Z,24.49
2022-07-27T02:42:10.262Z,24.61
2022-07-27T02:42:43.778Z,24.71
2022-07-27T02:43:16.780Z,24.74
2022-07-27T02:43:49.997Z,24.66
2022-07-27T02:44:23.080Z,24.50
2022-07-27T02:44:56.262Z,24.30
2022-07-27T02:45:29.472Z,24.07
2022-07-27T02:46:02.546Z,23.82
2022-07-27T02:46:35.793Z,23.59
2022-07-27T02:47:08.940Z,23.37
2022-07-27T02:47:42.909Z,23.16
2022-07-27T02:48:15.963Z,23.02
2022-07-27T02:48:49.016Z,23.00
2022-07-27T02:49:22.108Z,23.07
2022-07-27T02:49:55.237Z,23.21
2022-07-27T02:50:28.386Z,23.37
2022-07-27T02:51:02.180Z,23.53
2022-07-27T02:51:36.382Z,23.71
2022-07-27T02:52:12.699Z,23.89
2022-07-27T02:52:45.923Z,24.02
2022-07-27T02:53:19.137Z,24.15
2022-07-27T02:53:52.207Z,24.26
2022-07-27T02:54:25.728Z,24.35
2022-07-27T02:54:59.282Z,24.44
2022-07-27T02:55:32.373Z,24.49
2022-07-27T02:56:05.883Z,24.54
2022-07-27T02:56:39.023Z,24.59
2022-07-27T02:57:12.054Z,24.57
2022-07-27T02:57:45.150Z,24.47
2022-07-27T02:58:18.209Z,24.30
2022-07-27T02:58:51.674Z,24.07
2022-07-27T02:59:24.721Z,23.83
2022-07-27T02:59:57.890Z,23.59
2022-07-27T03:00:31.169Z,23.36
2022-07-27T03:01:05.511Z,23.14
2022-07-27T03:01:40.288Z,22.99
2022-07-27T03:02:13.446Z,22.95
2022-07-27T03:02:50.454Z,23.00
2022-07-27T03:03:23.691Z,23.12
2022-07-27T03:04:09.334Z,23.28
2022-07-27T03:04:42.558Z,23.40
2022-07-27T03:05:15.974Z,23.54
2022-07-27T03:05:50.102Z,23.69
2022-07-27T03:06:23.162Z,23.84
2022-07-27T03:06:56.344Z,23.98
2022-07-27T03:07:29.957Z,24.12
2022-07-27T03:08:04.360Z,24.25
2022-07-27T03:08:38.088Z,24.38
2022-07-27T03:09:11.383Z,24.49
2022-07-27T03:09:48.150Z,24.59
2022-07-27T03:10:23.931Z,24.66
2022-07-27T03:10:57.080Z,24.65
2022-07-27T03:11:30.753Z,24.55
2022-07-27T03:12:04.163Z,24.36
2022-07-27T03:12:37.317Z,24.15
2022-07-27T03:13:10.428Z,23.90
2022-07-27T03:13:43.473Z,23.67
2022-07-27T03:14:16.471Z,23.46
2022-07-27T03:14:49.756Z,23.24
2022-07-27T03:15:22.962Z,23.05
2022-07-27T03:15:57.612Z,22.91
2022-07-27T03:16:30.878Z,22.92
2022-07-27T03:17:04.120Z,23.01
2022-07-27T03:17:37.162Z,23.15
2022-07-27T03:18:10.224Z,23.30
2022-07-27T03:18:43.274Z,23.46
2022-07-27T03:19:16.317Z,23.60
2022-07-27T03:19:50.263Z,23.75
2022-07-27T03:20:23.351Z,23.89
2022-07-27T03:20:56.400Z,24.04
2022-07-27T03:21:29.629Z,24.17
2022-07-27T03:22:02.741Z,24.29
2022-07-27T03:22:35.879Z,24.41
2022-07-27T03:23:08.957Z,24.51
2022-07-27T03:23:42.046Z,24.61
2022-07-27T03:24:15.148Z,24.67
2022-07-27T03:24:48.643Z,24.67
2022-07-27T03:25:21.833Z,24.58
2022-07-27T03:25:54.962Z,24.41
2022-07-27T03:26:30.828Z,24.19
2022-07-27T03:27:04.087Z,23.94
2022-07-27T03:27:37.189Z,23.71
2022-07-27T03:28:10.227Z,23.48
2022-07-27T03:28:43.439Z,23.26
2022-07-27T03:29:16.535Z,23.06
2022-07-27T03:29:49.664Z,22.96
2022-07-27T03:30:22.879Z,22.98
2022-07-27T03:30:56.215Z,23.10
2022-07-27T03:31:29.444Z,23.28
2022-07-27T03:32:02.849Z,23.47
2022-07-27T03:32:36.047Z,23.65
2022-07-27T03:33:09.175Z,23.83
2022-07-27T03:33:42.326Z,23.96
2022-07-27T03:34:15.559Z,24.08
2022-07-27T03:34:48.697Z,24.16
2022-07-27T03:35:21.888Z,24.26
2022-07-27T03:35:54.942Z,24.35
2022-07-27T03:36:28.000Z,24.41
2022-07-27T03:37:03.792Z,24.48
2022-07-27T03:37:36.974Z,24.54
2022-07-27T03:38:10.096Z,24.59
2022-07-27T03:38:44.688Z,24.57
2022-07-27T03:39:17.957Z,24.46
2022-07-27T03:39:51.044Z,24.29
2022-07-27T03:40:24.092Z,24.08
2022-07-27T03:40:57.215Z,23.85
2022-07-27T03:41:30.310Z,23.62
2022-07-27T03:42:04.159Z,23.40
2022-07-27T03:42:37.565Z,23.18
2022-07-27T03:43:10.630Z,23.00
2022-07-27T03:43:43.679Z,22.89
2022-07-27T03:44:16.772Z,22.89
2022-07-27T03:44:49.967Z,22.96
2022-07-27T03:45:23.219Z,23.08
2022-07-27T03:45:56.414Z,23.22
2022-07-27T03:46:29.660Z,23.36
2022-07-27T03:47:02.751Z,23.51
2022-07-27T03:47:35.858Z,23.66
2022-07-27T03:48:08.877Z,23.79
2022-07-27T03:48:41.932Z,23.91
2022-07-27T03:49:15.614Z,24.04
2022-07-27T03:49:49.220Z,24.16
2022-07-27T03:50:22.885Z,24.29
2022-07-27T03:50:56.093Z,24.41
2022-07-27T03:51:29.156Z,24.52
2022-07-27T03:52:02.378Z,24.63
2022-07-27T03:52:35.370Z,24.73
2022-07-27T03:53:09.391Z,24.77
2022-07-27T03:53:42.657Z,24.71
2022-07-27T03:54:18.065Z,24.58
2022-07-27T03:54:51.149Z,24.36
2022-07-27T03:55:24.293Z,24.16
2022-07-27T03:55:57.341Z,23.94
2022-07-27T03:56:33.430Z,23.72
2022-07-27T03:57:06.738Z,23.49
2022-07-27T03:57:39.883Z,23.31
2022-07-27T03:58:12.932Z,23.14
2022-07-27T03:58:46.600Z,23.05
2022-07-27T03:59:19.837Z,23.07
2022-07-27T03:59:52.897Z,23.16
2022-07-27T04:00:26.348Z,23.29
2022-07-27T04:00:59.577Z,23.44
2022-07-27T04:01:32.678Z,23.60
2022-07-27T04:02:06.266Z,23.75
2022-07-27T04:02:43.172Z,23.89
2022-07-27T04:03:17.629Z,24.04
2022-07-27T04:03:50.624Z,24.16
2022-07-27T04:04:23.625Z,24.26
2022-07-27T04:04:56.564Z,24.37
2022-07-27T04:05:29.779Z,24.47
2022-07-27T04:06:03.099Z,24.56
2022-07-27T04:06:36.140Z,24.66
2022-07-27T04:07:09.320Z,24.73
2022-07-27T04:07:42.454Z,24.72
2022-07-27T04:08:17.612Z,24.63
2022-07-27T04:08:52.284Z,24.45
2022-07-27T04:09:29.402Z,24.19
2022-07-27T04:10:04.903Z,23.95
2022-07-27T04:10:38.023Z,23.70
2022-07-27T04:11:11.989Z,23.48
2022-07-27T04:11:51.200Z,23.25
2022-07-27T04:12:24.769Z,23.02
2022-07-27T04:12:57.744Z,22.89
2022-07-27T04:13:31.770Z,22.87
2022-07-27T04:14:05.436Z,22.91
2022-07-27T04:14:38.496Z,23.00
2022-07-27T04:15:11.711Z,23.12
2022-07-27T04:15:44.748Z,23.22
2022-07-27T04:16:18.497Z,23.32
2022-07-27T04:16:51.789Z,23.40
2022-07-27T04:17:54.346Z,23.50
2022-07-27T04:18:18.037Z,23.65
2022-07-27T04:18:53.608Z,23.74
2022-07-27T04:19:26.836Z,23.85
2022-07-27T04:19:59.992Z,23.97
2022-07-27T04:20:33.090Z,24.09
2022-07-27T04:21:06.688Z,24.19
2022-07-27T04:21:39.842Z,24.28
2022-07-27T04:22:13.117Z,24.35
2022-07-27T04:22:46.225Z,24.44
2022-07-27T04:23:19.307Z,24.49
2022-07-27T04:23:52.427Z,24.49
2022-07-27T04:24:25.509Z,24.38
2022-07-27T04:24:58.626Z,24.21
2022-07-27T04:25:31.780Z,23.99
2022-07-27T04:26:05.543Z,23.76
2022-07-27T04:26:38.722Z,23.52
2022-07-27T04:27:11.773Z,23.27
2022-07-27T04:27:44.912Z,23.05
2022-07-27T04:28:17.926Z,22.85
2022-07-27T04:28:51.137Z,22.72
2022-07-27T04:29:24.558Z,22.68
2022-07-27T04:29:57.848Z,22.73
2022-07-27T04:30:30.961Z,22.77
2022-07-27T04:31:04.166Z,22.83
2022-07-27T04:31:37.408Z,22.91
2022-07-27T04:32:10.508Z,23.00
2022-07-27T04:32:43.593Z,23.09
2022-07-27T04:33:16.656Z,23.18
2022-07-27T04:33:49.789Z,23.24
2022-07-27T04:34:22.880Z,23.30
2022-07-27T04:34:56.062Z,23.37
2022-07-27T04:35:29.133Z,23.47
2022-07-27T04:36:02.205Z,23.58
2022-07-27T04:36:38.663Z,23.67
2022-07-27T04:37:11.673Z,23.76
2022-07-27T04:37:57.856Z,23.85
2022-07-27T04:38:32.523Z,23.98
2022-07-27T04:39:06.657Z,24.04
2022-07-27T04:39:40.266Z,24.08
2022-07-27T04:40:13.529Z,24.15
2022-07-27T04:40:47.780Z,24.21
2022-07-27T04:41:20.844Z,24.26
2022-07-27T04:41:53.898Z,24.26
2022-07-27T04:42:27.122Z,24.15
2022-07-27T04:43:02.410Z,23.97
2022-07-27T04:43:35.484Z,23.74
2022-07-27T04:44:08.729Z,23.50
2022-07-27T04:44:41.779Z,23.25
2022-07-27T04:45:14.883Z,23.02
2022-07-27T04:45:48.143Z,22.79
2022-07-27T04:46:21.365Z,22.63
2022-07-27T04:46:56.924Z,22.55
2022-07-27T04:47:29.999Z,22.56
2022-07-27T04:48:08.344Z,22.60
2022-07-27T04:48:41.932Z,22.65
2022-07-27T04:49:22.689Z,22.70
2022-07-27T04:49:56.308Z,22.77
2022-07-27T04:50:29.617Z,22.85
2022-07-27T04:51:02.684Z,22.93
2022-07-27T04:51:35.758Z,23.00
2022-07-27T04:52:08.899Z,23.05
2022-07-27T04:52:42.042Z,23.10
2022-07-27T04:53:16.596Z,23.15
2022-07-27T04:53:53.432Z,23.21
2022-07-27T04:54:31.844Z,23.30
2022-07-27T04:55:05.268Z,23.38
2022-07-27T04:55:42.570Z,23.47
2022-07-27T04:56:15.607Z,23.55
2022-07-27T04:56:52.238Z,23.62
2022-07-27T04:57:25.447Z,23.69
2022-07-27T04:57:58.557Z,23.74
2022-07-27T04:58:31.737Z,23.79
2022-07-27T04:59:04.898Z,23.82
2022-07-27T04:59:38.210Z,23.85
2022-07-27T05:00:11.769Z,23.86
2022-07-27T05:00:45.252Z,23.92
2022-07-27T05:01:18.615Z,23.98
2022-07-27T05:01:51.803Z,24.04
2022-07-27T05:02:26.652Z,24.07
2022-07-27T05:02:59.789Z,24.10
2022-07-27T05:03:32.848Z,24.14
2022-07-27T05:04:06.293Z,24.16
2022-07-27T05:04:39.868Z,24.07
2022-07-27T05:05:13.037Z,23.88
2022-07-27T05:05:50.277Z,23.66
2022-07-27T05:06:23.781Z,23.42
2022-07-27T05:06:56.868Z,23.18
2022-07-27T05:07:29.978Z,22.94
2022-07-27T05:08:03.687Z,22.74
2022-07-27T05:08:37.084Z,22.63
2022-07-27T05:09:10.493Z,22.67
2022-07-27T05:09:43.881Z,22.81
2022-07-27T05:10:20.562Z,22.99
2022-07-27T05:10:54.072Z,23.22
2022-07-27T05:11:27.197Z,23.42
2022-07-27T05:12:00.336Z,23.62
2022-07-27T05:12:33.446Z,23.79
2022-07-27T05:13:07.297Z,23.95
2022-07-27T05:13:41.503Z,24.09
2022-07-27T05:14:14.547Z,24.22
2022-07-27T05:14:47.656Z,24.30
2022-07-27T05:15:20.895Z,24.34
2022-07-27T05:15:55.914Z,24.35
2022-07-27T05:16:29.479Z,24.26
2022-07-27T05:17:02.759Z,24.08
2022-07-27T05:17:38.364Z,23.85
2022-07-27T05:18:11.426Z,23.63
2022-07-27T05:18:46.267Z,23.41
2022-07-27T05:19:19.478Z,23.17
2022-07-27T05:19:52.760Z,22.95
2022-07-27T05:20:25.882Z,22.76
2022-07-27T05:20:59.002Z,22.65
2022-07-27T05:21:32.063Z,22.60
2022-07-27T05:22:05.174Z,22.63
2022-07-27T05:22:40.106Z,22.71
2022-07-27T05:23:13.475Z,22.81
2022-07-27T05:23:46.612Z,22.91
2022-07-27T05:24:20.402Z,23.01
2022-07-27T05:24:53.483Z,23.10
2022-07-27T05:25:26.644Z,23.18
2022-07-27T05:26:00.133Z,23.28
2022-07-27T05:26:33.153Z,23.36
2022-07-27T05:27:06.908Z,23.40
2022-07-27T05:27:50.929Z,23.45
2022-07-27T05:28:28.477Z,23.50
2022-07-27T05:29:01.505Z,23.54
2022-07-27T05:29:35.302Z,23.59
2022-07-27T05:30:09.672Z,23.63
2022-07-27T05:30:46.427Z,23.68
2022-07-27T05:31:19.673Z,23.72
2022-07-27T05:31:53.009Z,23.75
2022-07-27T05:32:26.241Z,23.79
2022-07-27T05:32:59.579Z,23.83
2022-07-27T05:33:33.119Z,23.87
2022-07-27T05:34:06.157Z,23.92
2022-07-27T05:34:39.230Z,23.97
2022-07-27T05:35:12.744Z,24.02
2022-07-27T05:35:45.855Z,24.07
2022-07-27T05:36:18.957Z,24.12
2022-07-27T05:36:52.151Z,24.16
2022-07-27T05:37:25.294Z,24.21
2022-07-27T05:37:58.373Z,24.26
2022-07-27T05:38:32.469Z,24.30
2022-07-27T05:39:08.182Z,24.35
2022-07-27T05:39:44.860Z,24.39
2022-07-27T05:40:17.906Z,24.43
2022-07-27T05:40:51.188Z,24.47
2022-07-27T05:41:25.578Z,24.52
2022-07-27T05:41:58.820Z,24.52
2022-07-27T05:42:31.970Z,24.45
2022-07-27T05:43:05.326Z,24.32
2022-07-27T05:43:38.449Z,24.14
2022-07-27T05:44:11.645Z,23.94
2022-07-27T05:44:44.842Z,23.75
2022-07-27T05:45:18.060Z,23.54
2022-07-27T05:45:51.265Z,23.36
2022-07-27T05:46:25.634Z,23.18
2022-07-27T05:47:00.638Z,23.01
2022-07-27T05:47:33.998Z,22.94
2022-07-27T05:48:07.227Z,22.96
2022-07-27T05:48:40.740Z,23.05
2022-07-27T05:49:15.012Z,23.20
2022-07-27T05:49:48.859Z,23.37
2022-07-27T05:50:22.121Z,23.54
2022-07-27T05:50:55.265Z,23.68
2022-07-27T05:51:28.757Z,23.82
2022-07-27T05:52:02.047Z,23.94
2022-07-27T05:52:35.200Z,24.02
2022-07-27T05:53:09.065Z,24.10
2022-07-27T05:53:42.441Z,24.16
2022-07-27T05:54:15.661Z,24.23
2022-07-27T05:54:48.767Z,24.31
2022-07-27T05:55:22.077Z,24.40
2022-07-27T05:55:59.170Z,24.47
2022-07-27T05:56:32.816Z,24.53
2022-07-27T05:57:06.047Z,24.52
2022-07-27T05:57:41.346Z,24.44
2022-07-27T05:58:14.471Z,24.28
2022-07-27T05:58:47.528Z,24.10
2022-07-27T05:59:20.622Z,23.91
2022-07-27T05:59:55.299Z,23.71
2022-07-27T06:00:28.435Z,23.51
2022-07-27T06:01:01.675Z,23.32
2022-07-27T06:01:35.019Z,23.16
2022-07-27T06:02:09.342Z,22.98
2022-07-27T06:02:42.663Z,22.84
2022-07-27T06:03:15.752Z,22.78
2022-07-27T06:03:48.991Z,22.84
2022-07-27T06:04:22.157Z,23.01
2022-07-27T06:04:55.241Z,23.21
2022-07-27T06:05:29.746Z,23.40
2022-07-27T06:06:21.616Z,23.58
2022-07-27T06:07:13.304Z,23.84
2022-07-27T06:08:09.164Z,24.10
2022-07-27T06:08:42.348Z,24.32
2022-07-27T06:09:15.616Z,24.44
2022-07-27T06:09:48.747Z,24.55
2022-07-27T06:10:21.840Z,24.59
2022-07-27T06:10:54.822Z,24.51
2022-07-27T06:11:27.887Z,24.36
2022-07-27T06:12:01.089Z,24.17
2022-07-27T06:12:42.252Z,23.98
2022-07-27T06:13:15.341Z,23.73
2022-07-27T06:13:48.358Z,23.51
2022-07-27T06:14:21.372Z,23.33
2022-07-27T06:14:54.472Z,23.15
2022-07-27T06:15:27.689Z,22.98
2022-07-27T06:16:00.822Z,22.84
2022-07-27T06:16:34.550Z,22.77
2022-07-27T06:17:07.981Z,22.80
2022-07-27T06:17:41.461Z,22.94
2022-07-27T06:18:18.412Z,23.14
2022-07-27T06:18:52.770Z,23.39
2022-07-27T06:19:25.929Z,23.63
2022-07-27T06:20:10.446Z,23.92
2022-07-27T06:20:43.685Z,24.12
2022-07-27T06:21:17.150Z,24.29
2022-07-27T06:21:53.803Z,24.41
2022-07-27T06:22:27.688Z,24.41
2022-07-27T06:23:07.569Z,24.30
2022-07-27T06:23:41.435Z,24.09
2022-07-27T06:24:14.920Z,23.90
2022-07-27T06:24:48.031Z,23.70
2022-07-27T06:25:22.545Z,23.50
2022-07-27T06:25:57.781Z,23.31
2022-07-27T06:26:30.894Z,23.12
2022-07-27T06:27:04.125Z,22.95
2022-07-27T06:27:38.084Z,22.89
2022-07-27T06:28:11.238Z,22.95
2022-07-27T06:28:44.470Z,23.11
2022-07-27T06:29:17.659Z,23.32
2022-07-27T06:29:50.802Z,23.53
2022-07-27T06:30:23.951Z,23.76
2022-07-27T06:30:57.060Z,23.98
2022-07-27T06:31:35.604Z,24.20
2022-07-27T06:32:09.071Z,24.40
2022-07-27T06:32:43.980Z,24.56
2022-07-27T06:33:17.047Z,24.63
2022-07-27T06:33:52.233Z,24.60
2022-07-27T06:34:25.647Z,24.46
2022-07-27T06:35:00.405Z,24.29
2022-07-27T06:35:34.441Z,24.08
2022-07-27T06:36:11.138Z,23.86
2022-07-27T06:36:45.418Z,23.64
2022-07-27T06:37:18.712Z,23.45
2022-07-27T06:37:53.397Z,23.26
2022-07-27T06:38:27.780Z,23.08
2022-07-27T06:39:01.941Z,22.90
2022-07-27T06:39:35.093Z,22.77
2022-07-27T06:40:08.699Z,22.74
2022-07-27T06:40:41.766Z,22.84
2022-07-27T06:41:15.700Z,23.03
2022-07-27T06:41:49.235Z,23.26
2022-07-27T06:42:22.330Z,23.48
2022-07-27T06:42:55.422Z,23.70
2022-07-27T06:43:32.099Z,23.90
2022-07-27T06:44:05.791Z,24.12
2022-07-27T06:44:38.866Z,24.32
2022-07-27T06:45:12.953Z,24.50
2022-07-27T06:45:46.155Z,24.66
2022-07-27T06:46:19.325Z,24.75
2022-07-27T06:46:52.782Z,24.73
2022-07-27T06:47:28.762Z,24.62
2022-07-27T06:48:02.191Z,24.44
2022-07-27T06:48:35.389Z,24.25
2022-07-27T06:49:09.296Z,24.06
2022-07-27T06:49:42.628Z,23.87
2022-07-27T06:50:15.820Z,23.69
2022-07-27T06:50:49.617Z,23.51
2022-07-27T06:51:23.912Z,23.35
2022-07-27T06:51:57.146Z,23.21
2022-07-27T06:52:30.469Z,23.09
2022-07-27T06:53:03.934Z,23.07
2022-07-27T06:53:37.317Z,23.20
2022-07-27T06:54:11.533Z,23.43
2022-07-27T06:54:45.277Z,23.72
2022-07-27T06:55:18.411Z,23.99
2022-07-27T06:55:51.575Z,24.27
2022-07-27T06:56:25.010Z,24.53
2022-07-27T06:56:58.076Z,24.74
2022-07-27T06:57:31.329Z,24.86
2022-07-27T06:58:04.970Z,24.87
2022-07-27T06:58:38.082Z,24.78
2022-07-27T06:59:11.456Z,24.62
2022-07-27T06:59:44.816Z,24.44
2022-07-27T07:00:18.076Z,24.24
2022-07-27T07:00:51.611Z,24.05
2022-07-27T07:01:24.990Z,23.86
2022-07-27T07:01:58.193Z,23.69
2022-07-27T07:02:31.254Z,23.53
2022-07-27T07:03:05.721Z,23.37
2022-07-27T07:03:38.927Z,23.22
2022-07-27T07:04:12.134Z,23.09
2022-07-27T07:04:45.701Z,22.99
2022-07-27T07:05:19.012Z,23.01
2022-07-27T07:05:52.104Z,23.15
2022-07-27T07:06:25.191Z,23.39
2022-07-27T07:07:05.294Z,23.67
2022-07-27T07:07:40.563Z,24.03
2022-07-27T07:08:14.982Z,24.31
2022-07-27T07:08:48.133Z,24.57
2022-07-27T07:09:22.405Z,24.80
2022-07-27T07:09:55.648Z,24.92
2022-07-27T07:10:28.828Z,24.93
2022-07-27T07:11:02.458Z,24.82
2022-07-27T07:11:35.759Z,24.66
2022-07-27T07:12:08.921Z,24.48
2022-07-27T07:12:42.137Z,24.28
2022-07-27T07:13:16.121Z,24.09
2022-07-27T07:13:49.195Z,23.91
2022-07-27T07:14:23.002Z,23.73
2022-07-27T07:14:56.228Z,23.57
2022-07-27T07:15:29.321Z,23.42
2022-07-27T07:16:02.577Z,23.30
2022-07-27T07:16:36.320Z,23.17
2022-07-27T07:17:09.414Z,23.05
2022-07-27T07:17:43.038Z,22.94
2022-07-27T07:18:16.265Z,22.85
2022-07-27T07:18:52.407Z,22.83